Time;durP1;ratioP1;P1;durP2;ratioP2;P2;SDS_P1;SDS_P2;PMS_P1;PMS_P2;Temp;Humidity;BMP_temperature;BMP_pressure;BME280_temperature;BME280_humidity;BME280_pressure;Samples;Min_cycle;Max_cycle;Signal;HPM_P1;HPM_P2
2021/04/21 00:00:53;;;;;;;100.17;52.63;;;12.90;99.90;;;;;;6214571;23;20151;-86
2021/04/21 00:03:19;;;;;;;104.63;55.10;;;12.90;99.90;;;;;;6215419;23;20151;-87
2021/04/21 00:05:46;;;;;;;93.03;53.87;;;12.80;99.90;;;;;;6214572;23;20156;-86
2021/04/21 00:08:12;;;;;;;101.83;55.10;;;12.80;99.90;;;;;;6215076;23;20168;-86
2021/04/21 00:10:38;;;;;;;105.73;55.63;;;12.80;99.90;;;;;;6214787;23;20247;-88
2021/04/21 00:13:08;;;;;;;99.63;55.10;;;12.80;99.90;;;;;;6214472;23;20151;-86
2021/04/21 00:15:33;;;;;;;102.60;54.50;;;12.80;99.90;;;;;;6214547;23;20233;-86
2021/04/21 00:18:02;;;;;;;98.37;54.07;;;12.80;99.90;;;;;;6214824;23;20227;-86
2021/04/21 00:20:29;;;;;;;98.70;52.83;;;12.70;99.90;;;;;;6214258;23;20161;-89
2021/04/21 00:23:01;;;;;;;103.90;55.40;;;12.80;99.90;;;;;;6214378;23;20160;-89
2021/04/21 00:25:30;;;;;;;102.07;53.60;;;12.60;99.90;;;;;;6214832;23;20160;-86
2021/04/21 00:27:56;;;;;;;105.17;56.10;;;12.60;99.90;;;;;;6215770;23;20148;-85
2021/04/21 00:30:28;;;;;;;101.50;53.70;;;12.60;99.90;;;;;;6215928;23;20226;-87
2021/04/21 00:32:56;;;;;;;99.97;54.10;;;12.60;99.90;;;;;;6216751;23;20163;-87
2021/04/21 00:35:35;;;;;;;103.43;55.57;;;12.70;99.90;;;;;;6216503;23;20194;-86
2021/04/21 00:38:06;;;;;;;98.30;53.13;;;12.70;99.90;;;;;;6218440;23;20176;-87
2021/04/21 00:40:56;;;;;;;100.17;53.63;;;12.70;99.90;;;;;;6218242;23;20148;-88
2021/04/21 00:43:46;;;;;;;101.13;54.47;;;12.70;99.90;;;;;;6216952;23;20581;-89
2021/04/21 00:46:17;;;;;;;94.00;51.63;;;12.60;99.90;;;;;;6216573;23;20183;-87
2021/04/21 00:48:55;;;;;;;99.03;52.20;;;12.70;99.90;;;;;;6216303;23;20163;-89
2021/04/21 00:51:58;;;;;;;98.33;53.40;;;12.70;99.90;;;;;;6216702;23;20235;-88
2021/04/21 00:54:36;;;;;;;94.00;52.07;;;12.70;99.90;;;;;;6216605;23;20186;-88
2021/04/21 00:57:25;;;;;;;93.47;52.77;;;12.60;99.90;;;;;;6217492;23;20180;-89
2021/04/21 01:00:11;;;;;;;92.87;52.27;;;12.70;99.90;;;;;;6215948;23;20641;-87
2021/04/21 01:03:05;;;;;;;100.03;53.97;;;12.70;99.90;;;;;;6216435;23;20173;-87
2021/04/21 01:05:36;;;;;;;105.23;51.93;;;12.60;99.90;;;;;;6196317;23;20152;-89
2021/04/21 01:08:05;;;;;;;97.60;51.87;;;12.60;99.90;;;;;;6216345;23;20243;-89
2021/04/21 01:10:40;;;;;;;102.00;53.30;;;12.50;99.90;;;;;;6216194;23;20152;-89
2021/04/21 01:13:06;;;;;;;98.63;52.20;;;12.70;99.90;;;;;;6216679;23;20152;-88
2021/04/21 01:15:35;;;;;;;96.93;51.93;;;12.70;99.90;;;;;;6215908;23;20184;-88
2021/04/21 01:18:03;;;;;;;89.40;50.83;;;12.60;99.90;;;;;;6216180;23;20162;-86
2021/04/21 01:21:08;;;;;;;100.13;52.33;;;12.60;99.90;;;;;;6215921;23;20156;-89
2021/04/21 01:24:09;;;;;;;94.87;50.37;;;12.60;99.90;;;;;;6072643;23;20288;-86
2021/04/21 01:26:51;;;;;;;91.80;50.37;;;12.60;99.90;;;;;;6216332;23;20183;-87
2021/04/21 01:29:42;;;;;;;95.57;52.03;;;12.70;99.90;;;;;;6215904;23;20152;-87
2021/04/21 01:32:19;;;;;;;93.50;50.47;;;12.60;99.90;;;;;;6215919;23;20190;-89
2021/04/21 01:34:48;;;;;;;92.83;51.10;;;12.70;99.90;;;;;;6215756;23;20257;-86
2021/04/21 01:37:18;;;;;;;92.03;50.87;;;12.80;99.90;;;;;;6215892;23;20168;-88
2021/04/21 01:39:51;;;;;;;98.53;51.57;;;12.60;99.90;;;;;;6215706;23;20231;-86
2021/04/21 01:42:18;;;;;;;97.87;52.20;;;12.70;99.90;;;;;;6215736;23;20214;-88
2021/04/21 01:44:46;;;;;;;92.70;50.50;;;12.60;99.90;;;;;;6215785;23;20156;-86
2021/04/21 01:47:18;;;;;;;94.30;52.00;;;12.60;99.90;;;;;;6216014;23;20199;-87
2021/04/21 01:49:50;;;;;;;97.23;50.70;;;12.60;99.90;;;;;;6215778;23;20144;-86
2021/04/21 01:52:40;;;;;;;96.60;51.60;;;12.60;99.90;;;;;;6215896;23;20582;-86
2021/04/21 01:55:20;;;;;;;90.07;50.33;;;12.50;99.90;;;;;;6215430;23;20206;-88
2021/04/21 01:57:49;;;;;;;93.83;50.67;;;12.50;99.90;;;;;;6215630;23;20523;-88
2021/04/21 02:00:28;;;;;;;95.53;49.93;;;12.40;99.90;;;;;;6215756;23;20156;-86
2021/04/21 02:03:12;;;;;;;92.37;49.73;;;12.50;99.90;;;;;;6215364;23;20178;-88
2021/04/21 02:06:07;;;;;;;88.77;50.17;;;12.30;99.90;;;;;;6215312;23;20152;-86
2021/04/21 02:09:10;;;;;;;88.70;48.07;;;12.40;99.90;;;;;;6162090;23;20191;-89
2021/04/21 02:11:38;;;;;;;92.83;49.40;;;12.30;99.90;;;;;;6215573;23;20159;-85
2021/04/21 02:14:20;;;;;;;93.47;50.03;;;12.40;99.90;;;;;;6215109;23;20716;-87
2021/04/21 02:16:45;;;;;;;87.00;47.67;;;12.40;99.90;;;;;;6215895;23;20239;-89
2021/04/21 02:19:46;;;;;;;98.17;49.60;;;12.30;99.90;;;;;;6215248;23;20593;-88
2021/04/21 02:22:39;;;;;;;87.77;47.87;;;12.30;99.90;;;;;;6207995;23;20156;-86
2021/04/21 02:25:29;;;;;;;92.03;48.20;;;12.30;99.90;;;;;;6215608;23;20249;-86
2021/04/21 02:28:27;;;;;;;92.40;47.93;;;12.30;99.90;;;;;;6215355;23;20156;-88
2021/04/21 02:31:08;;;;;;;91.47;46.10;;;12.20;99.90;;;;;;6215179;23;20198;-86
2021/04/21 02:33:51;;;;;;;88.43;49.40;;;12.10;99.90;;;;;;6215282;23;20186;-88
2021/04/21 02:36:25;;;;;;;87.57;47.50;;;12.10;99.90;;;;;;6215315;23;20155;-89
2021/04/21 02:39:07;;;;;;;85.77;47.40;;;12.10;99.90;;;;;;6215045;23;20592;-88
2021/04/21 02:41:50;;;;;;;84.50;47.20;;;12.30;99.90;;;;;;6215391;23;20152;-88
2021/04/21 02:44:56;;;;;;;91.80;49.73;;;12.30;99.90;;;;;;6215352;23;20577;-88
2021/04/21 02:47:51;;;;;;;88.07;46.50;;;12.30;99.90;;;;;;6215766;23;20148;-88
2021/04/21 02:50:39;;;;;;;82.80;46.47;;;12.20;99.90;;;;;;6214023;23;20155;-88
2021/04/21 02:53:17;;;;;;;91.80;47.70;;;12.10;99.90;;;;;;6214851;23;20155;-88
2021/04/21 02:56:19;;;;;;;89.53;47.10;;;12.00;99.90;;;;;;6215324;23;20666;-88
2021/04/21 02:59:11;;;;;;;94.70;47.70;;;12.10;99.90;;;;;;6216752;23;20481;-87
2021/04/21 03:02:02;;;;;;;86.47;47.03;;;12.00;99.90;;;;;;6141004;23;20184;-88
2021/04/21 03:04:56;;;;;;;87.77;47.87;;;12.00;99.90;;;;;;6215007;23;20242;-88
2021/04/21 03:07:37;;;;;;;85.97;45.73;;;12.00;99.90;;;;;;6215592;23;20155;-88
2021/04/21 03:10:10;;;;;;;89.57;46.07;;;12.10;99.90;;;;;;6214631;23;20163;-88
2021/04/21 03:12:39;;;;;;;87.30;47.77;;;12.10;99.90;;;;;;6215557;23;20214;-88
2021/04/21 03:15:08;;;;;;;88.27;47.57;;;12.00;99.90;;;;;;6214642;23;20187;-88
2021/04/21 03:17:34;;;;;;;84.73;47.13;;;12.10;99.90;;;;;;6215295;23;20582;-88
2021/04/21 03:20:12;;;;;;;88.40;47.33;;;12.10;99.90;;;;;;6214807;23;20227;-88
2021/04/21 03:22:39;;;;;;;94.43;47.97;;;12.10;99.90;;;;;;6215020;23;20155;-88
2021/04/21 03:25:21;;;;;;;89.30;46.33;;;12.20;99.90;;;;;;6214350;23;20152;-88
2021/04/21 03:27:51;;;;;;;85.73;47.07;;;12.10;99.90;;;;;;6215293;23;20629;-88
2021/04/21 03:30:20;;;;;;;86.43;45.33;;;12.00;99.90;;;;;;6215165;23;20209;-88
2021/04/21 03:32:57;;;;;;;81.77;46.27;;;12.00;99.90;;;;;;6214806;23;20155;-89
2021/04/21 03:35:25;;;;;;;90.27;47.43;;;12.00;99.90;;;;;;6214462;23;20262;-88
2021/04/21 03:38:07;;;;;;;86.83;48.00;;;12.10;99.90;;;;;;6214818;23;20191;-89
2021/04/21 03:40:37;;;;;;;86.63;47.33;;;12.10;99.90;;;;;;6214853;23;20151;-88
2021/04/21 03:43:04;;;;;;;92.63;47.77;;;12.10;99.90;;;;;;6215041;23;20233;-88
2021/04/21 03:45:30;;;;;;;93.37;47.20;;;12.10;99.90;;;;;;6214845;23;20148;-88
2021/04/21 03:47:57;;;;;;;94.80;47.37;;;12.20;99.90;;;;;;6215237;23;20143;-88
2021/04/21 03:50:24;;;;;;;85.73;47.43;;;12.10;99.90;;;;;;6215595;23;20163;-88
2021/04/21 03:52:58;;;;;;;91.73;47.77;;;12.10;99.90;;;;;;6215994;23;20240;-93
2021/04/21 03:55:25;;;;;;;84.03;45.83;;;12.10;99.90;;;;;;6214565;23;20184;-93
2021/04/21 03:57:55;;;;;;;94.60;46.80;;;12.10;99.90;;;;;;6215057;23;20148;-93
2021/04/21 04:00:21;;;;;;;90.80;47.23;;;12.10;99.90;;;;;;6214973;23;20183;-93
2021/04/21 04:03:03;;;;;;;92.67;47.07;;;12.20;99.90;;;;;;6215192;23;20176;-89
2021/04/21 04:05:38;;;;;;;87.77;47.30;;;12.20;99.90;;;;;;6216599;23;20250;-92
2021/04/21 04:08:08;;;;;;;84.60;46.37;;;12.10;99.90;;;;;;6216224;23;20151;-92
2021/04/21 04:10:36;;;;;;;83.17;46.13;;;12.10;99.90;;;;;;6216833;23;20160;-90
2021/04/21 04:13:11;;;;;;;85.00;46.20;;;12.10;99.90;;;;;;6217541;23;20152;-88
2021/04/21 04:15:39;;;;;;;79.87;45.53;;;12.10;99.90;;;;;;6216432;23;20183;-88
2021/04/21 04:18:05;;;;;;;83.90;45.63;;;12.10;99.90;;;;;;6216644;23;20159;-88
2021/04/21 04:20:33;;;;;;;86.33;45.13;;;12.10;99.90;;;;;;6216902;23;20148;-88
2021/04/21 04:23:06;;;;;;;84.50;46.07;;;12.10;99.90;;;;;;6216613;23;20156;-88
2021/04/21 04:25:36;;;;;;;82.13;45.53;;;12.00;99.90;;;;;;6216390;23;20147;-87
2021/04/21 04:28:03;;;;;;;77.27;43.20;;;12.00;99.90;;;;;;6216990;23;20140;-88
2021/04/21 04:30:30;;;;;;;82.87;44.93;;;12.00;99.90;;;;;;6216499;23;20498;-88
2021/04/21 04:32:58;;;;;;;87.43;44.47;;;12.10;99.90;;;;;;6216730;23;20172;-88
2021/04/21 04:35:24;;;;;;;97.87;44.63;;;12.10;99.90;;;;;;6216151;23;20188;-86
2021/04/21 04:37:54;;;;;;;77.30;42.30;;;12.10;99.90;;;;;;6216743;23;20209;-88
2021/04/21 04:40:20;;;;;;;85.57;43.57;;;12.10;99.90;;;;;;6216588;23;20206;-87
2021/04/21 04:42:47;;;;;;;79.37;43.47;;;12.00;99.90;;;;;;6216721;23;20179;-87
